createdAt,value
2023-08-21T00:03:16.718Z,20.43
2023-08-21T00:13:20.102Z,20.63
2023-08-21T00:23:24.493Z,20.37
2023-08-21T00:33:27.470Z,20.17
2023-08-21T00:43:31.914Z,19.93
2023-08-21T00:53:35.402Z,19.84
2023-08-21T01:03:39.763Z,19.81
2023-08-21T01:13:54.802Z,19.83
2023-08-21T01:23:59.215Z,19.70
2023-08-21T01:34:06.520Z,19.56
2023-08-21T01:44:10.892Z,19.41
2023-08-21T01:54:13.952Z,19.35
2023-08-21T02:04:18.416Z,19.11
2023-08-21T02:14:21.529Z,19.00
2023-08-21T02:24:25.883Z,18.93
2023-08-21T02:34:28.959Z,18.74
2023-08-21T02:44:33.327Z,18.54
2023-08-21T02:54:36.292Z,18.36
2023-08-21T03:04:40.767Z,18.21
2023-08-21T03:14:44.009Z,18.10
2023-08-21T03:24:48.369Z,17.98
2023-08-21T03:34:51.493Z,17.98
2023-08-21T03:44:57.541Z,17.94
2023-08-21T03:55:01.211Z,17.81
2023-08-21T04:05:06.900Z,17.62
2023-08-21T04:15:11.327Z,17.39
2023-08-21T04:25:15.574Z,17.37
2023-08-21T04:35:18.669Z,17.59
2023-08-21T04:45:23.115Z,17.80
2023-08-21T04:55:26.323Z,17.99
2023-08-21T05:05:30.865Z,18.14
2023-08-21T05:15:34.171Z,18.11
2023-08-21T05:25:39.989Z,18.10
2023-08-21T05:35:43.663Z,18.36
2023-08-21T05:45:49.076Z,18.73
2023-08-21T05:55:52.344Z,18.82
2023-08-21T06:05:56.798Z,18.99
2023-08-21T06:15:59.921Z,19.20
2023-08-21T06:26:05.923Z,19.50
2023-08-21T06:36:09.053Z,19.79
2023-08-21T06:46:13.552Z,20.20
2023-08-21T06:56:18.659Z,20.64
2023-08-21T07:06:23.016Z,21.41
2023-08-21T07:16:27.582Z,21.68
2023-08-21T07:26:32.271Z,21.93
2023-08-21T07:36:35.621Z,22.17
2023-08-21T07:46:40.049Z,22.49
2023-08-21T07:56:43.075Z,22.82
2023-08-21T08:06:47.497Z,23.28
2023-08-21T08:16:50.481Z,23.88
2023-08-21T08:26:55.257Z,24.42
2023-08-21T08:36:58.194Z,24.87
2023-08-21T08:47:03.278Z,25.32
2023-08-21T08:57:06.576Z,25.50
2023-08-21T09:07:12.174Z,25.39
2023-08-21T09:17:15.994Z,26.00
2023-08-21T09:27:20.853Z,25.71
2023-08-21T09:37:30.806Z,25.81
2023-08-21T09:47:36.154Z,25.84
2023-08-21T09:57:39.721Z,25.97
2023-08-21T10:07:46.221Z,26.26
2023-08-21T10:17:49.271Z,26.40
2023-08-21T10:27:55.223Z,26.59
2023-08-21T10:38:12.554Z,26.60
2023-08-21T10:48:16.900Z,26.82
2023-08-21T10:58:19.906Z,26.82
2023-08-21T11:08:24.668Z,27.17
2023-08-21T11:18:33.204Z,27.10
2023-08-21T11:39:06.333Z,27.76
2023-08-21T11:49:11.879Z,27.04
2023-08-21T11:59:24.738Z,27.38
2023-08-21T12:09:29.257Z,27.34
2023-08-21T12:19:34.822Z,27.60
2023-08-21T12:29:47.759Z,28.36
2023-08-21T12:39:51.830Z,28.52
2023-08-21T12:50:04.618Z,27.81
2023-08-21T13:00:12.776Z,28.36
2023-08-21T13:10:18.725Z,28.67
2023-08-21T13:20:24.637Z,28.82
2023-08-21T13:30:34.274Z,28.55
2023-08-21T13:40:37.805Z,28.95
2023-08-21T13:50:51.447Z,29.39
2023-08-21T14:00:54.889Z,28.71
2023-08-21T14:11:04.278Z,28.47
2023-08-21T14:21:14.811Z,29.14
2023-08-21T14:31:25.260Z,29.98
2023-08-21T14:41:31.882Z,30.39
2023-08-21T14:51:41.320Z,29.40
2023-08-21T15:01:48.979Z,29.90
2023-08-21T15:12:00.231Z,29.79
2023-08-21T15:22:04.524Z,29.33
2023-08-21T15:32:17.362Z,28.88
2023-08-21T15:42:21.041Z,28.59
2023-08-21T15:52:40.721Z,28.05
2023-08-21T16:02:44.839Z,27.96
2023-08-21T16:12:49.453Z,27.74
2023-08-21T16:22:54.326Z,27.58
2023-08-21T16:33:05.843Z,27.22
2023-08-21T16:43:16.748Z,27.14
2023-08-21T16:53:27.856Z,26.90
2023-08-21T17:03:34.584Z,26.69
2023-08-21T17:13:46.461Z,26.65
2023-08-21T17:23:49.598Z,26.57
2023-08-21T17:34:00.567Z,26.29
2023-08-21T17:44:07.416Z,25.87
2023-08-21T17:54:18.989Z,25.69
2023-08-21T18:04:22.988Z,25.33
2023-08-21T18:14:32.849Z,24.97
2023-08-21T18:24:39.559Z,24.71
2023-08-21T18:34:48.827Z,24.35
2023-08-21T18:44:58.473Z,23.99
2023-08-21T18:55:03.694Z,23.67
2023-08-21T19:05:07.750Z,23.27
2023-08-21T19:15:12.886Z,22.97
2023-08-21T19:25:16.024Z,22.67
2023-08-21T19:35:20.660Z,22.41
2023-08-21T19:45:23.697Z,22.19
2023-08-21T19:55:28.352Z,21.89
2023-08-21T20:05:31.592Z,21.62
2023-08-21T20:15:36.432Z,21.41
2023-08-21T20:25:39.512Z,21.22
2023-08-21T20:35:43.948Z,21.09
2023-08-21T20:45:47.208Z,20.90
2023-08-21T20:55:51.553Z,20.67
2023-08-21T21:05:55.512Z,20.50
2023-08-21T21:15:59.666Z,20.34
2023-08-21T21:26:03.721Z,20.14
2023-08-21T21:36:09.282Z,19.96
2023-08-21T21:46:26.415Z,19.79
2023-08-21T21:56:31.157Z,19.67
2023-08-21T22:06:39.861Z,19.74
2023-08-21T22:16:44.206Z,19.80
2023-08-21T22:26:47.226Z,19.78
2023-08-21T22:36:54.331Z,19.72
2023-08-21T22:46:57.327Z,19.64
2023-08-21T22:57:02.020Z,19.56
2023-08-21T23:07:05.532Z,19.40
2023-08-21T23:17:09.941Z,19.28
2023-08-21T23:27:12.913Z,19.22
2023-08-21T23:37:17.526Z,19.14
2023-08-21T23:47:20.522Z,19.11
2023-08-21T23:57:24.960Z,19.12
